sensor_id;sensor_type;location;lat;lon;timestamp;temperature;humidity
10889;DHT22;5497;51.388;6.780;2023-03-01T00:01:29;-1.00;99.90
10889;DHT22;5497;51.388;6.780;2023-03-01T00:03:57;-1.00;99.90
10889;DHT22;5497;51.388;6.780;2023-03-01T00:06:24;-1.00;99.90
10889;DHT22;5497;51.388;6.780;2023-03-01T00:08:53;-1.00;99.90
10889;DHT22;5497;51.388;6.780;2023-03-01T00:11:22;-0.90;99.90
10889;DHT22;5497;51.388;6.780;2023-03-01T00:13:52;-0.90;99.90
10889;DHT22;5497;51.388;6.780;2023-03-01T00:16:20;-0.90;99.90
10889;DHT22;5497;51.388;6.780;2023-03-01T00:18:48;-0.90;99.90
10889;DHT22;5497;51.388;6.780;2023-03-01T00:21:16;-1.00;99.90
10889;DHT22;5497;51.388;6.780;2023-03-01T00:23:43;-0.90;99.90
10889;DHT22;5497;51.388;6.780;2023-03-01T00:26:13;-0.90;99.90
10889;DHT22;5497;51.388;6.780;2023-03-01T00:28:41;-0.80;99.90
10889;DHT22;5497;51.388;6.780;2023-03-01T00:31:10;-0.80;99.90
10889;DHT22;5497;51.388;6.780;2023-03-01T00:33:37;-0.80;99.90
10889;DHT22;5497;51.388;6.780;2023-03-01T00:36:05;-0.80;99.90
10889;DHT22;5497;51.388;6.780;2023-03-01T00:38:35;-0.80;99.90
10889;DHT22;5497;51.388;6.780;2023-03-01T00:41:05;-0.80;99.90
10889;DHT22;5497;51.388;6.780;2023-03-01T00:43:34;-0.80;99.90
10889;DHT22;5497;51.388;6.780;2023-03-01T00:46:02;-0.80;99.90
10889;DHT22;5497;51.388;6.780;2023-03-01T00:48:29;-0.80;99.90
10889;DHT22;5497;51.388;6.780;2023-03-01T00:50:56;0.60;99.90
10889;DHT22;5497;51.388;6.780;2023-03-01T00:53:23;-0.80;99.90
10889;DHT22;5497;51.388;6.780;2023-03-01T00:55:50;-0.80;99.90
10889;DHT22;5497;51.388;6.780;2023-03-01T00:58:17;-0.80;99.90
10889;DHT22;5497;51.388;6.780;2023-03-01T01:00:46;-0.80;99.90
10889;DHT22;5497;51.388;6.780;2023-03-01T01:03:14;-0.90;99.90
10889;DHT22;5497;51.388;6.780;2023-03-01T01:05:41;-0.90;99.90
10889;DHT22;5497;51.388;6.780;2023-03-01T01:08:08;-0.90;99.90
10889;DHT22;5497;51.388;6.780;2023-03-01T01:10:35;-0.90;99.90
10889;DHT22;5497;51.388;6.780;2023-03-01T01:13:02;-1.00;99.90
10889;DHT22;5497;51.388;6.780;2023-03-01T01:15:33;-1.00;99.90
10889;DHT22;5497;51.388;6.780;2023-03-01T01:18:03;-1.00;99.90
10889;DHT22;5497;51.388;6.780;2023-03-01T01:20:30;-1.00;99.90
10889;DHT22;5497;51.388;6.780;2023-03-01T01:22:57;-1.00;99.90
10889;DHT22;5497;51.388;6.780;2023-03-01T01:25:24;-1.00;99.90
10889;DHT22;5497;51.388;6.780;2023-03-01T01:27:51;-1.10;99.90
10889;DHT22;5497;51.388;6.780;2023-03-01T01:30:18;-1.10;99.90
10889;DHT22;5497;51.388;6.780;2023-03-01T01:32:45;-1.10;99.90
10889;DHT22;5497;51.388;6.780;2023-03-01T01:35:13;-1.10;99.90
10889;DHT22;5497;51.388;6.780;2023-03-01T01:37:40;-1.10;99.90
10889;DHT22;5497;51.388;6.780;2023-03-01T01:40:10;-1.80;99.90
10889;DHT22;5497;51.388;6.780;2023-03-01T01:42:37;-1.10;99.90
10889;DHT22;5497;51.388;6.780;2023-03-01T01:45:34;-1.20;99.90
10889;DHT22;5497;51.388;6.780;2023-03-01T01:48:06;-1.20;99.90
10889;DHT22;5497;51.388;6.780;2023-03-01T01:50:39;-1.20;99.90
10889;DHT22;5497;51.388;6.780;2023-03-01T01:53:09;-1.20;99.90
10889;DHT22;5497;51.388;6.780;2023-03-01T01:55:41;-1.20;99.90
10889;DHT22;5497;51.388;6.780;2023-03-01T01:58:12;-1.20;99.90
10889;DHT22;5497;51.388;6.780;2023-03-01T02:00:40;-1.20;99.90
10889;DHT22;5497;51.388;6.780;2023-03-01T02:03:11;-1.20;99.90
10889;DHT22;5497;51.388;6.780;2023-03-01T02:05:45;-1.20;99.90
10889;DHT22;5497;51.388;6.780;2023-03-01T02:08:15;-1.20;99.90
10889;DHT22;5497;51.388;6.780;2023-03-01T02:10:44;-1.30;99.90
10889;DHT22;5497;51.388;6.780;2023-03-01T02:13:12;-1.30;99.90
10889;DHT22;5497;51.388;6.780;2023-03-01T02:15:40;-0.20;99.90
10889;DHT22;5497;51.388;6.780;2023-03-01T02:18:10;-1.40;99.90
10889;DHT22;5497;51.388;6.780;2023-03-01T02:20:43;-1.40;99.90
10889;DHT22;5497;51.388;6.780;2023-03-01T02:23:12;-1.50;99.90
10889;DHT22;5497;51.388;6.780;2023-03-01T02:25:47;-1.50;99.90
10889;DHT22;5497;51.388;6.780;2023-03-01T02:32:05;-1.50;99.90
10889;DHT22;5497;51.388;6.780;2023-03-01T02:34:33;-1.60;99.90
10889;DHT22;5497;51.388;6.780;2023-03-01T02:37:02;-1.60;99.90
10889;DHT22;5497;51.388;6.780;2023-03-01T02:39:33;-1.50;99.90
10889;DHT22;5497;51.388;6.780;2023-03-01T02:42:01;-1.50;99.90
10889;DHT22;5497;51.388;6.780;2023-03-01T02:44:29;-1.50;99.90
10889;DHT22;5497;51.388;6.780;2023-03-01T02:46:56;-1.50;99.90
10889;DHT22;5497;51.388;6.780;2023-03-01T02:49:31;-1.60;99.90
10889;DHT22;5497;51.388;6.780;2023-03-01T02:52:27;-1.60;99.90
10889;DHT22;5497;51.388;6.780;2023-03-01T02:54:59;-1.70;99.90
10889;DHT22;5497;51.388;6.780;2023-03-01T02:57:29;-1.70;99.90
10889;DHT22;5497;51.388;6.780;2023-03-01T02:59:59;-1.70;99.90
10889;DHT22;5497;51.388;6.780;2023-03-01T03:02:29;-1.70;99.90
10889;DHT22;5497;51.388;6.780;2023-03-01T03:05:09;-1.70;99.90
10889;DHT22;5497;51.388;6.780;2023-03-01T03:07:40;-0.60;99.90
10889;DHT22;5497;51.388;6.780;2023-03-01T03:10:10;-1.80;99.90
10889;DHT22;5497;51.388;6.780;2023-03-01T03:12:38;-1.70;99.90
10889;DHT22;5497;51.388;6.780;2023-03-01T03:15:07;-1.70;99.90
10889;DHT22;5497;51.388;6.780;2023-03-01T03:17:36;-1.70;99.90
10889;DHT22;5497;51.388;6.780;2023-03-01T03:20:03;-1.70;99.90
10889;DHT22;5497;51.388;6.780;2023-03-01T03:22:32;-1.70;99.90
10889;DHT22;5497;51.388;6.780;2023-03-01T03:24:59;-1.70;99.90
10889;DHT22;5497;51.388;6.780;2023-03-01T03:27:27;-1.80;99.90
10889;DHT22;5497;51.388;6.780;2023-03-01T03:29:54;-2.00;99.90
10889;DHT22;5497;51.388;6.780;2023-03-01T03:32:21;-1.70;99.90
10889;DHT22;5497;51.388;6.780;2023-03-01T03:34:48;-1.70;99.90
10889;DHT22;5497;51.388;6.780;2023-03-01T03:37:14;-1.90;99.90
10889;DHT22;5497;51.388;6.780;2023-03-01T03:39:57;-2.00;99.90
10889;DHT22;5497;51.388;6.780;2023-03-01T03:42:25;-0.70;99.90
10889;DHT22;5497;51.388;6.780;2023-03-01T03:44:52;-1.80;99.90
10889;DHT22;5497;51.388;6.780;2023-03-01T03:47:18;-1.80;99.90
10889;DHT22;5497;51.388;6.780;2023-03-01T03:49:45;-1.80;99.90
10889;DHT22;5497;51.388;6.780;2023-03-01T03:52:12;-1.80;99.90
10889;DHT22;5497;51.388;6.780;2023-03-01T03:54:39;-1.80;99.90
10889;DHT22;5497;51.388;6.780;2023-03-01T03:57:08;-1.80;99.90
10889;DHT22;5497;51.388;6.780;2023-03-01T03:59:34;-1.80;99.90
10889;DHT22;5497;51.388;6.780;2023-03-01T04:02:03;-1.80;99.90
10889;DHT22;5497;51.388;6.780;2023-03-01T04:04:32;-1.80;99.90
10889;DHT22;5497;51.388;6.780;2023-03-01T04:06:58;-1.80;99.90
10889;DHT22;5497;51.388;6.780;2023-03-01T04:09:25;-1.90;99.90
10889;DHT22;5497;51.388;6.780;2023-03-01T04:11:52;-1.80;99.90
10889;DHT22;5497;51.388;6.780;2023-03-01T04:17:02;-1.80;99.90
10889;DHT22;5497;51.388;6.780;2023-03-01T04:19:30;-1.80;99.90
10889;DHT22;5497;51.388;6.780;2023-03-01T04:22:01;-1.80;99.90
10889;DHT22;5497;51.388;6.780;2023-03-01T04:24:33;-1.80;99.90
10889;DHT22;5497;51.388;6.780;2023-03-01T04:26:59;-1.80;99.90
10889;DHT22;5497;51.388;6.780;2023-03-01T04:29:26;-2.20;99.90
10889;DHT22;5497;51.388;6.780;2023-03-01T04:31:53;-1.80;99.90
10889;DHT22;5497;51.388;6.780;2023-03-01T04:34:21;-1.80;99.90
10889;DHT22;5497;51.388;6.780;2023-03-01T04:36:48;-1.90;99.90
10889;DHT22;5497;51.388;6.780;2023-03-01T04:39:15;-1.90;99.90
10889;DHT22;5497;51.388;6.780;2023-03-01T04:41:42;-1.90;99.90
10889;DHT22;5497;51.388;6.780;2023-03-01T04:44:09;-1.90;99.90
10889;DHT22;5497;51.388;6.780;2023-03-01T04:46:37;-1.90;99.90
10889;DHT22;5497;51.388;6.780;2023-03-01T04:49:03;-1.90;99.90
10889;DHT22;5497;51.388;6.780;2023-03-01T04:51:32;-1.90;99.90
10889;DHT22;5497;51.388;6.780;2023-03-01T04:53:59;-1.90;99.90
10889;DHT22;5497;51.388;6.780;2023-03-01T04:56:26;-1.90;99.90
10889;DHT22;5497;51.388;6.780;2023-03-01T04:58:53;-1.90;99.90
10889;DHT22;5497;51.388;6.780;2023-03-01T05:01:21;-1.90;99.90
10889;DHT22;5497;51.388;6.780;2023-03-01T05:03:50;-1.90;99.90
10889;DHT22;5497;51.388;6.780;2023-03-01T05:06:18;-1.90;99.90
10889;DHT22;5497;51.388;6.780;2023-03-01T05:08:47;-1.90;99.90
10889;DHT22;5497;51.388;6.780;2023-03-01T05:11:14;-1.90;99.90
10889;DHT22;5497;51.388;6.780;2023-03-01T05:13:41;-1.80;99.90
10889;DHT22;5497;51.388;6.780;2023-03-01T05:16:09;-1.80;99.90
10889;DHT22;5497;51.388;6.780;2023-03-01T05:18:38;-1.80;99.90
10889;DHT22;5497;51.388;6.780;2023-03-01T05:21:08;-1.80;99.90
10889;DHT22;5497;51.388;6.780;2023-03-01T05:23:35;-1.80;99.90
10889;DHT22;5497;51.388;6.780;2023-03-01T05:26:05;-1.80;99.90
10889;DHT22;5497;51.388;6.780;2023-03-01T05:28:32;-1.80;99.90
10889;DHT22;5497;51.388;6.780;2023-03-01T05:30:59;-1.80;99.90
10889;DHT22;5497;51.388;6.780;2023-03-01T05:33:27;-1.80;99.90
10889;DHT22;5497;51.388;6.780;2023-03-01T05:35:54;-1.70;99.90
10889;DHT22;5497;51.388;6.780;2023-03-01T05:38:21;-1.80;99.90
10889;DHT22;5497;51.388;6.780;2023-03-01T05:43:41;-1.80;99.90
10889;DHT22;5497;51.388;6.780;2023-03-01T05:46:10;-1.80;99.90
10889;DHT22;5497;51.388;6.780;2023-03-01T05:48:38;-1.80;99.90
10889;DHT22;5497;51.388;6.780;2023-03-01T05:51:05;-1.80;99.90
10889;DHT22;5497;51.388;6.780;2023-03-01T05:53:32;-1.90;99.90
10889;DHT22;5497;51.388;6.780;2023-03-01T05:55:59;-1.90;99.90
10889;DHT22;5497;51.388;6.780;2023-03-01T05:58:26;-1.90;99.90
10889;DHT22;5497;51.388;6.780;2023-03-01T06:00:54;-1.90;99.90
10889;DHT22;5497;51.388;6.780;2023-03-01T06:03:21;-1.90;99.90
10889;DHT22;5497;51.388;6.780;2023-03-01T06:05:48;-1.90;99.90
10889;DHT22;5497;51.388;6.780;2023-03-01T06:08:15;-2.00;99.90
10889;DHT22;5497;51.388;6.780;2023-03-01T06:10:42;-1.90;99.90
10889;DHT22;5497;51.388;6.780;2023-03-01T06:13:09;-1.90;99.90
10889;DHT22;5497;51.388;6.780;2023-03-01T06:15:36;-1.90;99.90
10889;DHT22;5497;51.388;6.780;2023-03-01T06:18:04;-1.90;99.90
10889;DHT22;5497;51.388;6.780;2023-03-01T06:20:31;-1.90;99.90
10889;DHT22;5497;51.388;6.780;2023-03-01T06:22:58;-1.90;99.90
10889;DHT22;5497;51.388;6.780;2023-03-01T06:25:26;-1.90;99.90
10889;DHT22;5497;51.388;6.780;2023-03-01T06:27:53;-1.90;99.90
10889;DHT22;5497;51.388;6.780;2023-03-01T06:33:02;-1.80;99.90
10889;DHT22;5497;51.388;6.780;2023-03-01T06:35:30;-1.80;99.90
10889;DHT22;5497;51.388;6.780;2023-03-01T06:37:59;-1.80;99.90
10889;DHT22;5497;51.388;6.780;2023-03-01T06:40:26;-1.80;99.90
10889;DHT22;5497;51.388;6.780;2023-03-01T06:42:53;-1.80;99.90
10889;DHT22;5497;51.388;6.780;2023-03-01T06:45:21;-1.70;99.90
10889;DHT22;5497;51.388;6.780;2023-03-01T06:47:48;-1.70;99.90
10889;DHT22;5497;51.388;6.780;2023-03-01T06:50:16;-0.90;99.90
10889;DHT22;5497;51.388;6.780;2023-03-01T06:52:45;-1.00;99.90
10889;DHT22;5497;51.388;6.780;2023-03-01T06:55:13;-0.90;99.90
10889;DHT22;5497;51.388;6.780;2023-03-01T06:57:40;-0.30;99.90
10889;DHT22;5497;51.388;6.780;2023-03-01T07:00:08;0.60;99.90
10889;DHT22;5497;51.388;6.780;2023-03-01T07:02:35;0.70;99.90
10889;DHT22;5497;51.388;6.780;2023-03-01T07:05:02;1.00;99.90
10889;DHT22;5497;51.388;6.780;2023-03-01T07:07:29;1.30;99.90
10889;DHT22;5497;51.388;6.780;2023-03-01T07:09:57;2.70;99.90
10889;DHT22;5497;51.388;6.780;2023-03-01T07:12:24;1.70;99.90
10889;DHT22;5497;51.388;6.780;2023-03-01T07:14:51;2.00;99.90
10889;DHT22;5497;51.388;6.780;2023-03-01T07:17:18;2.40;99.90
10889;DHT22;5497;51.388;6.780;2023-03-01T07:19:45;3.00;99.90
10889;DHT22;5497;51.388;6.780;2023-03-01T07:22:12;3.60;99.90
10889;DHT22;5497;51.388;6.780;2023-03-01T07:24:39;5.60;99.90
10889;DHT22;5497;51.388;6.780;2023-03-01T07:27:08;4.50;99.90
10889;DHT22;5497;51.388;6.780;2023-03-01T07:29:35;5.20;99.90
10889;DHT22;5497;51.388;6.780;2023-03-01T07:32:03;5.50;99.90
10889;DHT22;5497;51.388;6.780;2023-03-01T07:34:30;5.70;99.90
10889;DHT22;5497;51.388;6.780;2023-03-01T07:36:57;6.40;99.90
10889;DHT22;5497;51.388;6.780;2023-03-01T07:39:23;6.70;99.90
10889;DHT22;5497;51.388;6.780;2023-03-01T07:41:51;6.80;99.90
10889;DHT22;5497;51.388;6.780;2023-03-01T07:44:22;6.80;99.90
10889;DHT22;5497;51.388;6.780;2023-03-01T07:46:49;6.80;99.90
10889;DHT22;5497;51.388;6.780;2023-03-01T07:49:18;7.00;99.90
10889;DHT22;5497;51.388;6.780;2023-03-01T07:51:44;7.20;99.90
10889;DHT22;5497;51.388;6.780;2023-03-01T07:54:11;7.70;99.90
10889;DHT22;5497;51.388;6.780;2023-03-01T07:56:38;7.70;99.90
10889;DHT22;5497;51.388;6.780;2023-03-01T07:59:06;8.30;99.90
10889;DHT22;5497;51.388;6.780;2023-03-01T08:01:34;7.40;99.90
10889;DHT22;5497;51.388;6.780;2023-03-01T08:04:01;7.40;99.90
10889;DHT22;5497;51.388;6.780;2023-03-01T08:06:30;7.20;99.90
10889;DHT22;5497;51.388;6.780;2023-03-01T08:08:57;7.10;99.90
10889;DHT22;5497;51.388;6.780;2023-03-01T08:11:23;7.00;99.90
10889;DHT22;5497;51.388;6.780;2023-03-01T08:13:50;7.00;99.90
10889;DHT22;5497;51.388;6.780;2023-03-01T08:16:17;6.90;99.90
10889;DHT22;5497;51.388;6.780;2023-03-01T08:18:45;6.70;99.90
10889;DHT22;5497;51.388;6.780;2023-03-01T08:21:14;6.50;99.90
10889;DHT22;5497;51.388;6.780;2023-03-01T08:23:42;6.50;99.90
10889;DHT22;5497;51.388;6.780;2023-03-01T08:26:11;6.20;99.90
10889;DHT22;5497;51.388;6.780;2023-03-01T08:28:39;6.00;99.90
10889;DHT22;5497;51.388;6.780;2023-03-01T08:31:14;6.10;99.90
10889;DHT22;5497;51.388;6.780;2023-03-01T08:33:42;6.10;99.90
10889;DHT22;5497;51.388;6.780;2023-03-01T08:36:10;6.20;99.90
10889;DHT22;5497;51.388;6.780;2023-03-01T08:38:37;6.40;99.90
10889;DHT22;5497;51.388;6.780;2023-03-01T08:41:04;6.40;99.90
10889;DHT22;5497;51.388;6.780;2023-03-01T08:43:31;6.50;99.90
10889;DHT22;5497;51.388;6.780;2023-03-01T08:45:58;6.40;99.90
10889;DHT22;5497;51.388;6.780;2023-03-01T08:48:25;6.50;99.90
10889;DHT22;5497;51.388;6.780;2023-03-01T08:50:53;6.60;99.90
10889;DHT22;5497;51.388;6.780;2023-03-01T08:53:22;6.50;99.90
10889;DHT22;5497;51.388;6.780;2023-03-01T08:55:49;6.50;99.90
10889;DHT22;5497;51.388;6.780;2023-03-01T08:58:16;6.70;99.90
10889;DHT22;5497;51.388;6.780;2023-03-01T09:00:43;6.70;99.90
10889;DHT22;5497;51.388;6.780;2023-03-01T09:03:10;6.60;99.90
10889;DHT22;5497;51.388;6.780;2023-03-01T09:05:37;6.60;99.90
10889;DHT22;5497;51.388;6.780;2023-03-01T09:08:04;6.60;99.90
10889;DHT22;5497;51.388;6.780;2023-03-01T09:10:32;6.60;99.90
10889;DHT22;5497;51.388;6.780;2023-03-01T09:12:59;6.40;99.90
10889;DHT22;5497;51.388;6.780;2023-03-01T09:15:26;6.50;99.90
10889;DHT22;5497;51.388;6.780;2023-03-01T09:17:53;6.50;99.90
10889;DHT22;5497;51.388;6.780;2023-03-01T09:20:20;6.40;99.90
10889;DHT22;5497;51.388;6.780;2023-03-01T09:22:47;6.10;99.90
10889;DHT22;5497;51.388;6.780;2023-03-01T09:25:14;5.70;99.90
10889;DHT22;5497;51.388;6.780;2023-03-01T09:27:42;5.60;99.90
10889;DHT22;5497;51.388;6.780;2023-03-01T09:30:10;5.30;99.90
10889;DHT22;5497;51.388;6.780;2023-03-01T09:32:37;5.10;99.90
10889;DHT22;5497;51.388;6.780;2023-03-01T09:35:08;4.90;99.90
10889;DHT22;5497;51.388;6.780;2023-03-01T09:37:36;4.90;99.90
10889;DHT22;5497;51.388;6.780;2023-03-01T09:40:06;4.80;99.90
10889;DHT22;5497;51.388;6.780;2023-03-01T09:42:35;4.70;99.90
10889;DHT22;5497;51.388;6.780;2023-03-01T09:45:05;4.70;99.90
10889;DHT22;5497;51.388;6.780;2023-03-01T09:47:34;4.70;99.90
10889;DHT22;5497;51.388;6.780;2023-03-01T09:50:06;4.70;99.90
10889;DHT22;5497;51.388;6.780;2023-03-01T09:52:39;4.80;99.90
10889;DHT22;5497;51.388;6.780;2023-03-01T09:55:11;4.80;99.90
10889;DHT22;5497;51.388;6.780;2023-03-01T09:57:43;4.80;99.90
10889;DHT22;5497;51.388;6.780;2023-03-01T10:00:21;4.80;99.90
10889;DHT22;5497;51.388;6.780;2023-03-01T10:02:57;4.90;99.90
10889;DHT22;5497;51.388;6.780;2023-03-01T10:05:34;5.10;99.90
10889;DHT22;5497;51.388;6.780;2023-03-01T10:08:27;5.20;99.90
10889;DHT22;5497;51.388;6.780;2023-03-01T10:10:57;5.20;99.90
10889;DHT22;5497;51.388;6.780;2023-03-01T10:13:27;5.30;99.90
10889;DHT22;5497;51.388;6.780;2023-03-01T10:16:03;5.30;99.90
10889;DHT22;5497;51.388;6.780;2023-03-01T10:18:33;5.30;99.90
10889;DHT22;5497;51.388;6.780;2023-03-01T10:21:05;5.30;99.90
10889;DHT22;5497;51.388;6.780;2023-03-01T10:23:37;5.40;99.90
10889;DHT22;5497;51.388;6.780;2023-03-01T10:26:15;5.50;99.90
10889;DHT22;5497;51.388;6.780;2023-03-01T10:28:51;5.60;99.90
10889;DHT22;5497;51.388;6.780;2023-03-01T10:31:25;5.70;99.90
10889;DHT22;5497;51.388;6.780;2023-03-01T10:33:53;5.90;99.90
10889;DHT22;5497;51.388;6.780;2023-03-01T10:36:22;6.00;99.90
10889;DHT22;5497;51.388;6.780;2023-03-01T10:38:52;6.10;99.90
10889;DHT22;5497;51.388;6.780;2023-03-01T10:41:20;6.20;99.90
10889;DHT22;5497;51.388;6.780;2023-03-01T10:43:50;6.20;99.90
10889;DHT22;5497;51.388;6.780;2023-03-01T10:46:29;6.30;99.90
10889;DHT22;5497;51.388;6.780;2023-03-01T10:49:07;6.30;99.90
10889;DHT22;5497;51.388;6.780;2023-03-01T10:51:34;6.40;99.90
10889;DHT22;5497;51.388;6.780;2023-03-01T10:54:01;6.40;99.90
10889;DHT22;5497;51.388;6.780;2023-03-01T10:56:46;6.50;99.90
10889;DHT22;5497;51.388;6.780;2023-03-01T10:59:22;6.60;99.90
10889;DHT22;5497;51.388;6.780;2023-03-01T11:04:59;6.90;99.90
10889;DHT22;5497;51.388;6.780;2023-03-01T11:07:27;7.00;99.90
10889;DHT22;5497;51.388;6.780;2023-03-01T11:09:54;7.00;99.90
10889;DHT22;5497;51.388;6.780;2023-03-01T11:12:21;7.10;99.90
10889;DHT22;5497;51.388;6.780;2023-03-01T11:14:50;7.20;99.90
10889;DHT22;5497;51.388;6.780;2023-03-01T11:17:23;7.20;99.90
10889;DHT22;5497;51.388;6.780;2023-03-01T11:20:06;7.20;99.90
10889;DHT22;5497;51.388;6.780;2023-03-01T11:22:45;7.30;99.90
10889;DHT22;5497;51.388;6.780;2023-03-01T11:25:14;7.40;99.90
10889;DHT22;5497;51.388;6.780;2023-03-01T11:27:44;7.50;99.90
10889;DHT22;5497;51.388;6.780;2023-03-01T11:30:18;7.70;99.90
10889;DHT22;5497;51.388;6.780;2023-03-01T11:32:53;7.70;99.90
10889;DHT22;5497;51.388;6.780;2023-03-01T11:35:24;7.70;99.90
10889;DHT22;5497;51.388;6.780;2023-03-01T11:37:59;7.90;99.90
10889;DHT22;5497;51.388;6.780;2023-03-01T11:40:32;8.00;99.90
10889;DHT22;5497;51.388;6.780;2023-03-01T11:43:06;7.90;99.90
10889;DHT22;5497;51.388;6.780;2023-03-01T11:45:47;8.30;99.90
10889;DHT22;5497;51.388;6.780;2023-03-01T11:48:39;8.40;99.90
10889;DHT22;5497;51.388;6.780;2023-03-01T11:51:13;8.40;99.90
10889;DHT22;5497;51.388;6.780;2023-03-01T11:53:59;8.50;99.90
10889;DHT22;5497;51.388;6.780;2023-03-01T11:56:32;8.60;99.90
10889;DHT22;5497;51.388;6.780;2023-03-01T12:02:15;8.50;99.90
10889;DHT22;5497;51.388;6.780;2023-03-01T12:05:41;8.60;99.90
10889;DHT22;5497;51.388;6.780;2023-03-01T12:08:16;8.70;99.90
10889;DHT22;5497;51.388;6.780;2023-03-01T12:10:51;8.70;99.90
10889;DHT22;5497;51.388;6.780;2023-03-01T12:13:32;8.90;99.90
10889;DHT22;5497;51.388;6.780;2023-03-01T12:16:22;9.00;99.90
10889;DHT22;5497;51.388;6.780;2023-03-01T12:19:06;9.10;99.90
10889;DHT22;5497;51.388;6.780;2023-03-01T12:21:46;9.00;99.90
10889;DHT22;5497;51.388;6.780;2023-03-01T12:24:39;9.00;99.90
10889;DHT22;5497;51.388;6.780;2023-03-01T12:27:30;9.00;99.90
10889;DHT22;5497;51.388;6.780;2023-03-01T12:30:16;9.20;99.90
10889;DHT22;5497;51.388;6.780;2023-03-01T12:32:50;9.10;99.90
10889;DHT22;5497;51.388;6.780;2023-03-01T12:35:40;9.20;99.90
10889;DHT22;5497;51.388;6.780;2023-03-01T12:38:24;9.30;99.90
10889;DHT22;5497;51.388;6.780;2023-03-01T12:41:19;9.10;99.90
10889;DHT22;5497;51.388;6.780;2023-03-01T12:44:01;9.20;99.90
10889;DHT22;5497;51.388;6.780;2023-03-01T12:46:43;9.10;99.90
10889;DHT22;5497;51.388;6.780;2023-03-01T12:49:14;9.10;99.90
10889;DHT22;5497;51.388;6.780;2023-03-01T12:51:50;9.10;99.90
10889;DHT22;5497;51.388;6.780;2023-03-01T12:54:26;9.10;99.90
10889;DHT22;5497;51.388;6.780;2023-03-01T12:56:55;9.10;99.90
10889;DHT22;5497;51.388;6.780;2023-03-01T12:59:28;9.10;99.90
10889;DHT22;5497;51.388;6.780;2023-03-01T13:02:10;9.10;99.90
10889;DHT22;5497;51.388;6.780;2023-03-01T13:04:51;9.10;99.90
10889;DHT22;5497;51.388;6.780;2023-03-01T13:07:28;9.20;99.90
10889;DHT22;5497;51.388;6.780;2023-03-01T13:10:10;9.20;99.90
10889;DHT22;5497;51.388;6.780;2023-03-01T13:12:47;9.20;99.90
10889;DHT22;5497;51.388;6.780;2023-03-01T13:15:33;9.20;99.90
10889;DHT22;5497;51.388;6.780;2023-03-01T13:18:03;9.30;99.90
10889;DHT22;5497;51.388;6.780;2023-03-01T13:20:34;9.20;99.90
10889;DHT22;5497;51.388;6.780;2023-03-01T13:23:24;9.40;99.90
10889;DHT22;5497;51.388;6.780;2023-03-01T13:26:09;9.30;99.90
10889;DHT22;5497;51.388;6.780;2023-03-01T13:28:59;9.20;99.90
10889;DHT22;5497;51.388;6.780;2023-03-01T13:32:00;9.20;99.90
10889;DHT22;5497;51.388;6.780;2023-03-01T13:34:55;9.30;99.90
10889;DHT22;5497;51.388;6.780;2023-03-01T13:37:26;9.30;99.90
10889;DHT22;5497;51.388;6.780;2023-03-01T13:39:56;9.30;99.30
10889;DHT22;5497;51.388;6.780;2023-03-01T13:42:44;9.30;99.50
10889;DHT22;5497;51.388;6.780;2023-03-01T13:45:21;9.30;99.90
10889;DHT22;5497;51.388;6.780;2023-03-01T13:47:58;9.20;99.90
10889;DHT22;5497;51.388;6.780;2023-03-01T13:50:28;9.20;99.30
10889;DHT22;5497;51.388;6.780;2023-03-01T13:53:02;9.20;99.10
10889;DHT22;5497;51.388;6.780;2023-03-01T13:55:40;9.20;99.20
10889;DHT22;5497;51.388;6.780;2023-03-01T13:58:21;9.10;99.60
10889;DHT22;5497;51.388;6.780;2023-03-01T14:00:59;9.20;99.80
10889;DHT22;5497;51.388;6.780;2023-03-01T14:03:27;9.20;99.90
10889;DHT22;5497;51.388;6.780;2023-03-01T14:06:05;9.20;99.90
10889;DHT22;5497;51.388;6.780;2023-03-01T14:08:36;9.20;99.90
10889;DHT22;5497;51.388;6.780;2023-03-01T14:11:29;9.10;99.90
10889;DHT22;5497;51.388;6.780;2023-03-01T14:17:19;9.00;99.90
10889;DHT22;5497;51.388;6.780;2023-03-01T14:19:55;9.00;99.90
10889;DHT22;5497;51.388;6.780;2023-03-01T14:22:25;9.00;99.90
10889;DHT22;5497;51.388;6.780;2023-03-01T14:24:59;8.90;99.90
10889;DHT22;5497;51.388;6.780;2023-03-01T14:27:33;8.90;99.90
10889;DHT22;5497;51.388;6.780;2023-03-01T14:30:04;8.90;99.90
10889;DHT22;5497;51.388;6.780;2023-03-01T14:32:52;9.00;99.90
10889;DHT22;5497;51.388;6.780;2023-03-01T14:35:22;9.00;99.90
10889;DHT22;5497;51.388;6.780;2023-03-01T14:37:49;9.00;99.60
10889;DHT22;5497;51.388;6.780;2023-03-01T14:40:23;8.90;99.70
10889;DHT22;5497;51.388;6.780;2023-03-01T14:42:51;8.80;99.60
10889;DHT22;5497;51.388;6.780;2023-03-01T14:45:19;8.70;99.80
10889;DHT22;5497;51.388;6.780;2023-03-01T14:47:48;8.70;99.90
10889;DHT22;5497;51.388;6.780;2023-03-01T14:50:24;8.70;99.90
10889;DHT22;5497;51.388;6.780;2023-03-01T14:52:55;8.70;99.90
10889;DHT22;5497;51.388;6.780;2023-03-01T14:55:28;8.70;99.90
10889;DHT22;5497;51.388;6.780;2023-03-01T14:57:57;8.70;99.90
10889;DHT22;5497;51.388;6.780;2023-03-01T15:00:26;8.70;99.90
10889;DHT22;5497;51.388;6.780;2023-03-01T15:03:00;8.70;99.90
10889;DHT22;5497;51.388;6.780;2023-03-01T15:05:31;8.60;99.90
10889;DHT22;5497;51.388;6.780;2023-03-01T15:08:00;8.40;99.80
10889;DHT22;5497;51.388;6.780;2023-03-01T15:10:36;8.20;99.70
10889;DHT22;5497;51.388;6.780;2023-03-01T15:13:12;8.20;99.90
10889;DHT22;5497;51.388;6.780;2023-03-01T15:15:41;8.20;99.90
10889;DHT22;5497;51.388;6.780;2023-03-01T15:18:18;8.10;99.90
10889;DHT22;5497;51.388;6.780;2023-03-01T15:20:48;8.20;99.90
10889;DHT22;5497;51.388;6.780;2023-03-01T15:23:25;8.20;99.90
10889;DHT22;5497;51.388;6.780;2023-03-01T15:25:54;8.10;99.90
10889;DHT22;5497;51.388;6.780;2023-03-01T15:28:26;8.00;99.90
10889;DHT22;5497;51.388;6.780;2023-03-01T15:30:57;7.80;99.90
10889;DHT22;5497;51.388;6.780;2023-03-01T15:33:34;7.80;99.90
10889;DHT22;5497;51.388;6.780;2023-03-01T15:38:53;7.70;99.90
10889;DHT22;5497;51.388;6.780;2023-03-01T15:41:25;7.70;99.90
10889;DHT22;5497;51.388;6.780;2023-03-01T15:43:54;7.80;99.90
10889;DHT22;5497;51.388;6.780;2023-03-01T15:46:27;7.70;99.90
10889;DHT22;5497;51.388;6.780;2023-03-01T15:48:58;7.60;99.90
10889;DHT22;5497;51.388;6.780;2023-03-01T15:51:32;7.60;99.90
10889;DHT22;5497;51.388;6.780;2023-03-01T15:54:03;7.60;99.90
10889;DHT22;5497;51.388;6.780;2023-03-01T15:56:31;7.60;99.90
10889;DHT22;5497;51.388;6.780;2023-03-01T15:59:00;7.60;99.90
10889;DHT22;5497;51.388;6.780;2023-03-01T16:01:28;7.60;99.90
10889;DHT22;5497;51.388;6.780;2023-03-01T16:03:57;7.60;99.90
10889;DHT22;5497;51.388;6.780;2023-03-01T16:06:25;7.60;99.90
10889;DHT22;5497;51.388;6.780;2023-03-01T16:08:52;7.60;99.90
10889;DHT22;5497;51.388;6.780;2023-03-01T16:11:20;7.50;99.90
10889;DHT22;5497;51.388;6.780;2023-03-01T16:13:49;7.90;99.90
10889;DHT22;5497;51.388;6.780;2023-03-01T16:16:19;7.50;99.90
10889;DHT22;5497;51.388;6.780;2023-03-01T16:18:49;7.40;99.90
10889;DHT22;5497;51.388;6.780;2023-03-01T16:21:22;7.20;99.90
10889;DHT22;5497;51.388;6.780;2023-03-01T16:23:51;7.30;99.90
10889;DHT22;5497;51.388;6.780;2023-03-01T16:26:19;7.20;99.90
10889;DHT22;5497;51.388;6.780;2023-03-01T16:28:46;7.20;99.90
10889;DHT22;5497;51.388;6.780;2023-03-01T16:31:17;6.80;99.90
10889;DHT22;5497;51.388;6.780;2023-03-01T16:33:49;7.10;99.90
10889;DHT22;5497;51.388;6.780;2023-03-01T16:36:21;6.90;99.90
10889;DHT22;5497;51.388;6.780;2023-03-01T16:47:40;6.60;99.90
10889;DHT22;5497;51.388;6.780;2023-03-01T16:50:08;7.40;99.90
10889;DHT22;5497;51.388;6.780;2023-03-01T16:55:07;5.90;99.90